createdAt,value
2024-03-16T00:00:23.630Z,14.38
2024-03-16T00:03:11.614Z,14.31
2024-03-16T00:05:40.039Z,14.26
2024-03-16T00:08:07.847Z,14.20
2024-03-16T00:10:36.051Z,14.22
2024-03-16T00:13:03.515Z,14.28
2024-03-16T00:15:31.439Z,14.22
2024-03-16T00:17:59.004Z,14.24
2024-03-16T00:20:26.860Z,14.26
2024-03-16T00:22:54.287Z,14.15
2024-03-16T00:25:22.012Z,14.13
2024-03-16T00:27:49.605Z,14.22
2024-03-16T00:30:17.542Z,14.16
2024-03-16T00:32:45.251Z,14.19
2024-03-16T00:35:13.069Z,14.16
2024-03-16T00:37:40.517Z,14.07
2024-03-16T00:40:09.294Z,14.01
2024-03-16T00:42:36.907Z,14.12
2024-03-16T00:45:05.402Z,14.26
2024-03-16T00:47:32.893Z,14.19
2024-03-16T00:50:00.679Z,14.21
2024-03-16T00:52:28.170Z,14.09
2024-03-16T00:54:56.050Z,14.00
2024-03-16T00:57:23.698Z,13.89
2024-03-16T00:59:51.641Z,13.81
2024-03-16T01:02:19.091Z,13.73
2024-03-16T01:04:47.384Z,13.81
2024-03-16T01:07:14.769Z,13.81
2024-03-16T01:09:43.029Z,13.79
2024-03-16T01:12:10.525Z,13.84
2024-03-16T01:14:38.344Z,13.81
2024-03-16T01:17:05.956Z,13.63
2024-03-16T01:19:34.065Z,13.59
2024-03-16T01:22:01.575Z,13.50
2024-03-16T01:24:29.846Z,13.51
2024-03-16T01:26:57.325Z,13.42
2024-03-16T01:29:25.517Z,13.43
2024-03-16T01:31:52.918Z,13.39
2024-03-16T01:34:20.765Z,13.17
2024-03-16T01:36:49.279Z,13.10
2024-03-16T01:39:17.156Z,13.18
2024-03-16T01:41:44.521Z,13.03
2024-03-16T01:44:12.716Z,12.96
2024-03-16T01:46:40.124Z,12.93
2024-03-16T01:49:08.059Z,12.86
2024-03-16T01:51:36.399Z,12.80
2024-03-16T01:54:04.776Z,12.67
2024-03-16T01:56:32.348Z,12.39
2024-03-16T01:59:00.193Z,12.32
2024-03-16T02:01:27.700Z,12.29
2024-03-16T02:03:55.624Z,12.29
2024-03-16T02:06:23.090Z,12.27
2024-03-16T02:08:51.004Z,12.15
2024-03-16T02:11:18.541Z,12.13
2024-03-16T02:13:46.335Z,12.22
2024-03-16T02:16:13.831Z,12.34
2024-03-16T02:18:41.811Z,12.29
2024-03-16T02:21:09.226Z,12.33
2024-03-16T02:23:37.229Z,12.41
2024-03-16T02:26:04.754Z,12.43
2024-03-16T02:28:32.825Z,12.49
2024-03-16T02:31:00.387Z,12.53
2024-03-16T02:33:28.115Z,12.46
2024-03-16T02:35:55.575Z,12.36
2024-03-16T02:38:23.316Z,12.25
2024-03-16T02:40:50.746Z,12.24
2024-03-16T02:43:18.587Z,12.21
2024-03-16T02:45:46.070Z,12.05
2024-03-16T02:48:14.068Z,12.14
2024-03-16T02:50:41.422Z,12.11
2024-03-16T02:53:09.227Z,12.08
2024-03-16T02:55:36.663Z,12.14
2024-03-16T02:58:04.637Z,12.06
2024-03-16T03:00:32.147Z,12.05
2024-03-16T03:02:59.811Z,12.06
2024-03-16T03:05:27.323Z,12.14
2024-03-16T03:07:55.158Z,12.19
2024-03-16T03:10:25.591Z,12.10
2024-03-16T03:12:53.516Z,12.16
2024-03-16T03:15:20.884Z,12.20
2024-03-16T03:17:48.741Z,12.28
2024-03-16T03:20:16.270Z,12.31
2024-03-16T03:22:43.961Z,12.38
2024-03-16T03:25:11.983Z,12.42
2024-03-16T03:27:39.952Z,12.45
2024-03-16T03:30:07.970Z,12.35
2024-03-16T03:32:35.746Z,12.32
2024-03-16T03:35:03.115Z,12.22
2024-03-16T03:37:30.998Z,12.26
2024-03-16T03:39:58.747Z,12.25
2024-03-16T03:42:27.058Z,12.22
2024-03-16T03:44:54.664Z,12.17
2024-03-16T03:47:22.385Z,12.11
2024-03-16T03:49:49.892Z,12.05
2024-03-16T03:52:17.793Z,11.95
2024-03-16T03:54:45.051Z,11.76
2024-03-16T03:57:13.108Z,11.61
2024-03-16T03:59:40.515Z,11.71
2024-03-16T04:02:08.383Z,11.64
2024-03-16T04:04:35.868Z,11.45
2024-03-16T04:07:03.542Z,11.58
2024-03-16T04:09:30.969Z,11.67
2024-03-16T04:11:58.680Z,11.58
2024-03-16T04:14:26.087Z,11.42
2024-03-16T04:16:53.837Z,11.33
2024-03-16T04:19:21.360Z,11.19
2024-03-16T04:21:49.149Z,10.88
2024-03-16T04:24:16.554Z,10.59
2024-03-16T04:26:44.752Z,10.62
2024-03-16T04:29:12.081Z,10.54
2024-03-16T04:31:40.046Z,10.45
2024-03-16T04:34:10.483Z,10.34
2024-03-16T04:36:38.257Z,10.21
2024-03-16T04:39:05.567Z,10.07
2024-03-16T04:41:34.576Z,9.93
2024-03-16T04:44:02.232Z,9.92
2024-03-16T04:46:30.530Z,9.96
2024-03-16T04:48:58.121Z,9.91
2024-03-16T04:51:25.886Z,9.74
2024-03-16T04:53:53.464Z,9.75
2024-03-16T04:56:21.339Z,9.83
2024-03-16T04:58:48.898Z,9.88
2024-03-16T05:01:17.427Z,9.93
2024-03-16T05:03:45.031Z,9.66
2024-03-16T05:06:12.830Z,9.41
2024-03-16T05:08:40.268Z,9.47
2024-03-16T05:11:08.128Z,9.48
2024-03-16T05:13:36.080Z,9.35
2024-03-16T05:16:07.405Z,9.31
2024-03-16T05:18:34.877Z,9.33
2024-03-16T05:21:02.761Z,9.31
2024-03-16T05:23:33.326Z,9.27
2024-03-16T05:26:01.482Z,9.35
2024-03-16T05:28:28.954Z,9.57
2024-03-16T05:30:57.041Z,9.75
2024-03-16T05:33:24.529Z,9.68
2024-03-16T05:35:52.482Z,9.65
2024-03-16T05:38:19.892Z,9.82
2024-03-16T05:40:48.181Z,9.90
2024-03-16T05:43:15.852Z,9.99
2024-03-16T05:45:43.763Z,10.06
2024-03-16T05:48:11.072Z,10.24
2024-03-16T05:50:39.473Z,10.35
2024-03-16T05:53:06.930Z,10.52
2024-03-16T05:55:34.965Z,10.72
2024-03-16T05:58:02.652Z,10.84
2024-03-16T06:00:30.414Z,11.02
2024-03-16T06:03:00.940Z,11.08
2024-03-16T06:05:29.075Z,11.11
2024-03-16T06:07:56.618Z,11.29
2024-03-16T06:10:24.600Z,11.33
2024-03-16T06:12:52.134Z,11.43
2024-03-16T06:15:20.064Z,11.45
2024-03-16T06:17:47.562Z,11.66
2024-03-16T06:20:15.629Z,11.68
2024-03-16T06:22:42.963Z,11.82
2024-03-16T06:25:11.450Z,11.90
2024-03-16T06:27:39.139Z,11.95
2024-03-16T06:30:07.638Z,12.06
2024-03-16T06:32:35.576Z,12.14
2024-03-16T06:35:03.698Z,12.20
2024-03-16T06:37:31.386Z,12.25
2024-03-16T06:39:59.750Z,12.35
2024-03-16T06:42:27.329Z,12.44
2024-03-16T06:44:55.151Z,12.59
2024-03-16T06:47:22.584Z,12.52
2024-03-16T06:49:50.607Z,12.47
2024-03-16T06:52:18.032Z,12.58
2024-03-16T06:54:46.117Z,12.67
2024-03-16T06:57:13.944Z,12.69
2024-03-16T06:59:42.363Z,12.84
2024-03-16T07:02:11.785Z,12.83
2024-03-16T07:04:41.509Z,12.94
2024-03-16T07:07:09.193Z,13.10
2024-03-16T07:09:38.382Z,13.28
2024-03-16T07:12:09.970Z,13.46
2024-03-16T07:14:38.121Z,13.61
2024-03-16T07:17:05.443Z,13.74
2024-03-16T07:19:33.563Z,13.75
2024-03-16T07:22:01.230Z,13.87
2024-03-16T07:24:29.376Z,14.09
2024-03-16T07:26:56.961Z,14.34
2024-03-16T07:29:25.483Z,14.48
2024-03-16T07:31:53.511Z,14.28
2024-03-16T07:34:21.749Z,14.27
2024-03-16T07:36:49.774Z,14.33
2024-03-16T07:39:17.978Z,14.12
2024-03-16T07:41:45.544Z,14.22
2024-03-16T07:44:14.034Z,14.30
2024-03-16T07:46:41.285Z,14.36
2024-03-16T07:49:10.278Z,14.30
2024-03-16T07:51:38.175Z,14.16
2024-03-16T07:54:07.285Z,13.90
2024-03-16T07:56:35.607Z,13.79
2024-03-16T07:59:08.658Z,13.81
2024-03-16T08:01:36.298Z,13.95
2024-03-16T08:04:04.722Z,14.06
2024-03-16T08:06:32.461Z,14.24
2024-03-16T08:09:00.750Z,14.31
2024-03-16T08:11:28.379Z,14.40
2024-03-16T08:13:56.762Z,14.42
2024-03-16T08:16:24.334Z,14.41
2024-03-16T08:18:52.416Z,14.68
2024-03-16T08:21:20.037Z,14.78
2024-03-16T08:23:48.018Z,14.91
2024-03-16T08:26:15.932Z,15.35
2024-03-16T08:28:44.268Z,15.46
2024-03-16T08:31:12.229Z,15.37
2024-03-16T08:33:40.619Z,15.36
2024-03-16T08:36:08.412Z,15.49
2024-03-16T08:38:36.303Z,15.53
2024-03-16T08:41:06.198Z,15.58
2024-03-16T08:43:37.204Z,15.43
2024-03-16T08:46:05.468Z,15.25
2024-03-16T08:48:33.575Z,15.21
2024-03-16T08:51:01.038Z,15.35
2024-03-16T08:53:32.067Z,15.47
2024-03-16T08:55:59.979Z,15.85
2024-03-16T08:58:28.419Z,16.07
2024-03-16T09:00:56.241Z,16.17
2024-03-16T09:03:24.541Z,16.28
2024-03-16T09:05:52.308Z,16.39
2024-03-16T09:08:20.617Z,16.43
2024-03-16T09:10:51.238Z,16.65
2024-03-16T09:13:20.195Z,16.89
2024-03-16T09:15:48.021Z,17.24
2024-03-16T09:18:25.636Z,17.53
2024-03-16T09:20:53.202Z,17.96
2024-03-16T09:23:22.377Z,18.18
2024-03-16T09:25:56.777Z,18.33
2024-03-16T09:31:07.254Z,18.72
2024-03-16T09:33:35.456Z,18.62
2024-03-16T09:36:03.085Z,18.22
2024-03-16T09:38:30.932Z,17.90
2024-03-16T09:40:58.459Z,17.68
